Time;durP1;ratioP1;P1;durP2;ratioP2;P2;SDS_P1;SDS_P2;PMS_P1;PMS_P2;Temp;Humidity;BMP_temperature;BMP_pressure;BME280_temperature;BME280_humidity;BME280_pressure;Samples;Min_cycle;Max_cycle;Signal;HPM_P1;HPM_P2
2023/07/12 00:00:24;;;;;;;6.70;2.90;;;22.40;99.90;;;;;;5052402;28;20545;-52
2023/07/12 00:02:51;;;;;;;8.13;3.77;;;22.30;99.90;;;;;;5046671;28;20557;-51
2023/07/12 00:05:19;;;;;;;5.00;3.87;;;22.40;99.90;;;;;;5052691;28;20549;-52
2023/07/12 00:07:46;;;;;;;9.70;3.40;;;22.40;99.90;;;;;;5050551;28;20544;-52
2023/07/12 00:10:22;;;;;;;3.70;3.40;;;22.30;99.90;;;;;;5048930;28;20959;-52
2023/07/12 00:12:50;;;;;;;6.50;3.60;;;22.30;99.90;;;;;;5055926;28;20558;-52
2023/07/12 00:15:21;;;;;;;4.03;3.23;;;22.30;99.90;;;;;;5050879;28;20545;-52
2023/07/12 00:17:48;;;;;;;6.03;3.70;;;22.30;99.90;;;;;;5053926;28;20971;-51
2023/07/12 00:20:22;;;;;;;10.83;3.80;;;22.30;99.90;;;;;;5047416;28;21015;-52
2023/07/12 00:22:50;;;;;;;12.73;3.10;;;22.30;99.90;;;;;;5048588;28;20592;-52
2023/07/12 00:25:18;;;;;;;4.63;3.53;;;22.30;99.90;;;;;;5047429;28;21517;-52
2023/07/12 00:27:46;;;;;;;6.97;3.70;;;22.20;99.90;;;;;;5054880;28;20565;-51
2023/07/12 00:30:17;;;;;;;13.70;4.20;;;22.20;99.90;;;;;;5055030;28;21034;-52
2023/07/12 00:32:43;;;;;;;7.60;3.63;;;22.20;99.90;;;;;;5050240;28;20565;-52
2023/07/12 00:35:15;;;;;;;11.80;3.37;;;22.20;99.90;;;;;;5051362;28;20465;-52
2023/07/12 00:37:41;;;;;;;12.07;4.50;;;22.20;99.90;;;;;;5045420;28;20557;-51
2023/07/12 00:40:20;;;;;;;5.20;3.77;;;22.20;99.90;;;;;;5049614;28;20561;-51
2023/07/12 00:42:52;;;;;;;7.23;3.67;;;22.10;99.90;;;;;;5052971;28;20929;-51
2023/07/12 00:45:19;;;;;;;13.37;4.90;;;22.10;99.90;;;;;;5045529;28;20497;-51
2023/07/12 00:47:48;;;;;;;6.10;3.50;;;22.10;99.90;;;;;;5050241;28;20462;-51
2023/07/12 00:50:18;;;;;;;4.60;3.97;;;22.10;99.90;;;;;;5048971;28;20466;-52
2023/07/12 00:52:45;;;;;;;4.00;3.40;;;22.10;99.90;;;;;;5048188;28;20498;-52
2023/07/12 00:55:54;;;;;;;5.80;3.73;;;22.00;99.90;;;;;;5050474;28;20540;-52
2023/07/12 00:58:22;;;;;;;8.60;3.53;;;22.00;99.90;;;;;;5048643;28;20900;-53
2023/07/12 01:00:49;;;;;;;7.17;4.23;;;22.00;99.90;;;;;;5051663;28;21007;-52
2023/07/12 01:03:18;;;;;;;6.03;3.63;;;22.00;99.90;;;;;;5049949;28;20569;-52
2023/07/12 01:05:46;;;;;;;6.80;4.37;;;22.00;99.90;;;;;;5050186;28;20462;-52
2023/07/12 01:08:13;;;;;;;3.97;3.57;;;21.90;99.90;;;;;;5049113;28;20493;-53
2023/07/12 01:10:41;;;;;;;5.30;4.00;;;21.90;99.90;;;;;;5048013;28;20454;-51
2023/07/12 01:13:08;;;;;;;6.13;3.90;;;21.90;99.90;;;;;;5047936;28;20565;-52
2023/07/12 01:15:36;;;;;;;4.03;3.73;;;21.80;99.90;;;;;;5048133;28;20489;-52
2023/07/12 01:18:04;;;;;;;7.40;4.20;;;21.80;99.90;;;;;;5049799;28;20839;-53
2023/07/12 01:20:35;;;;;;;6.87;4.30;;;21.80;99.90;;;;;;5048362;28;20894;-52
2023/07/12 01:23:03;;;;;;;7.30;3.83;;;21.80;99.90;;;;;;5049433;28;20513;-53
2023/07/12 01:25:36;;;;;;;4.80;3.63;;;21.80;99.90;;;;;;5049375;28;20461;-51
2023/07/12 01:28:02;;;;;;;5.17;3.67;;;21.80;99.90;;;;;;5050771;28;21046;-51
2023/07/12 01:30:29;;;;;;;8.13;4.20;;;21.70;99.90;;;;;;5049625;28;20497;-51
2023/07/12 01:32:56;;;;;;;5.43;3.73;;;21.80;99.90;;;;;;5047648;28;21055;-52
2023/07/12 01:35:22;;;;;;;9.10;3.53;;;21.80;99.90;;;;;;5045676;28;21015;-52
2023/07/12 01:37:49;;;;;;;9.27;4.30;;;21.70;99.90;;;;;;5051422;28;20999;-53
2023/07/12 01:40:17;;;;;;;5.87;3.70;;;21.70;99.90;;;;;;5043267;28;20500;-51
2023/07/12 01:42:44;;;;;;;5.83;4.23;;;21.70;99.90;;;;;;5052089;28;20570;-53
2023/07/12 01:45:11;;;;;;;6.07;3.90;;;21.70;99.90;;;;;;5050049;28;20904;-51
2023/07/12 01:47:37;;;;;;;4.07;3.77;;;21.70;99.90;;;;;;5048194;28;21101;-51
2023/07/12 01:50:04;;;;;;;7.40;4.10;;;21.70;99.90;;;;;;5050909;28;20496;-52
2023/07/12 01:52:31;;;;;;;4.77;3.63;;;21.70;99.90;;;;;;5052908;28;20509;-51
2023/07/12 01:54:58;;;;;;;10.10;4.03;;;21.70;99.90;;;;;;5043302;28;20553;-52
2023/07/12 01:57:26;;;;;;;3.93;3.60;;;21.60;99.90;;;;;;5048382;28;20957;-51
2023/07/12 01:59:52;;;;;;;3.60;3.30;;;21.60;99.90;;;;;;5040746;28;20556;-51
2023/07/12 02:02:19;;;;;;;5.73;3.87;;;21.60;99.90;;;;;;5050627;28;20480;-52
2023/07/12 02:04:46;;;;;;;7.43;4.30;;;21.60;99.90;;;;;;5050877;28;20772;-52
2023/07/12 02:07:12;;;;;;;7.30;3.87;;;21.60;99.90;;;;;;5046246;28;20490;-51
2023/07/12 02:09:40;;;;;;;9.90;3.20;;;21.60;99.90;;;;;;5050630;28;20544;-52
2023/07/12 02:12:08;;;;;;;4.50;3.87;;;21.60;99.90;;;;;;5047240;28;20531;-51
2023/07/12 02:14:36;;;;;;;4.50;4.10;;;21.60;99.90;;;;;;5042025;28;20553;-52
2023/07/12 02:17:02;;;;;;;7.47;4.60;;;21.50;99.90;;;;;;5048107;28;20462;-52
2023/07/12 02:19:29;;;;;;;3.90;3.53;;;21.50;99.90;;;;;;5049824;28;20584;-52
2023/07/12 02:21:55;;;;;;;12.77;3.80;;;21.50;99.90;;;;;;5045093;28;20588;-52
2023/07/12 02:24:22;;;;;;;4.87;3.93;;;21.50;99.90;;;;;;5057418;22;20533;-54
2023/07/12 02:26:48;;;;;;;7.77;4.73;;;21.50;99.90;;;;;;5046599;28;20553;-53
2023/07/12 02:29:15;;;;;;;6.20;3.90;;;21.40;99.90;;;;;;5049132;28;20544;-53
2023/07/12 02:31:43;;;;;;;8.57;4.30;;;21.40;99.90;;;;;;5042194;28;21071;-54
2023/07/12 02:34:09;;;;;;;4.70;3.77;;;21.40;99.90;;;;;;5043397;28;21049;-53
2023/07/12 02:36:36;;;;;;;5.20;3.97;;;21.40;99.90;;;;;;5044210;28;20543;-53
2023/07/12 02:39:02;;;;;;;5.67;4.67;;;21.40;99.90;;;;;;5048602;28;20545;-53
2023/07/12 02:41:29;;;;;;;6.27;4.40;;;21.40;99.90;;;;;;5050010;28;20498;-52
2023/07/12 02:43:55;;;;;;;4.43;4.03;;;21.40;99.90;;;;;;5048341;28;20556;-54
2023/07/12 02:46:22;;;;;;;5.67;4.00;;;21.40;99.90;;;;;;5046088;28;20494;-54
2023/07/12 02:48:50;;;;;;;6.50;4.10;;;21.40;99.90;;;;;;5042613;28;21014;-54
2023/07/12 02:51:16;;;;;;;8.30;4.43;;;21.40;99.90;;;;;;5051293;28;20541;-54
2023/07/12 02:53:43;;;;;;;6.57;4.30;;;21.40;99.90;;;;;;5045231;28;20590;-54
2023/07/12 02:56:09;;;;;;;8.10;4.30;;;21.40;99.90;;;;;;5046014;28;20493;-53
2023/07/12 02:58:36;;;;;;;11.10;4.80;;;21.40;99.90;;;;;;5047664;28;20895;-53
2023/07/12 03:01:03;;;;;;;4.80;4.30;;;21.40;99.90;;;;;;5046796;28;20496;-54
2023/07/12 03:03:29;;;;;;;5.17;4.00;;;21.40;99.90;;;;;;5048508;28;20564;-54
2023/07/12 03:06:02;;;;;;;7.83;4.30;;;21.40;99.90;;;;;;5044734;28;20543;-54
2023/07/12 03:08:29;;;;;;;19.50;4.63;;;21.40;99.90;;;;;;5046239;28;20505;-53
2023/07/12 03:10:58;;;;;;;5.67;4.57;;;21.40;99.90;;;;;;5044069;28;20544;-55
2023/07/12 03:13:24;;;;;;;5.67;4.47;;;21.40;99.90;;;;;;5048018;28;20509;-54
2023/07/12 03:15:51;;;;;;;5.97;4.60;;;21.30;99.90;;;;;;5052743;28;20541;-53
2023/07/12 03:18:18;;;;;;;6.30;4.40;;;21.30;99.90;;;;;;5048152;28;20458;-54
2023/07/12 03:20:44;;;;;;;4.70;4.07;;;21.30;99.90;;;;;;5051928;28;20917;-52
2023/07/12 03:23:12;;;;;;;8.00;4.63;;;21.30;99.90;;;;;;5050935;28;21071;-54
2023/07/12 03:25:39;;;;;;;6.83;4.80;;;21.30;99.90;;;;;;5046879;28;20478;-53
2023/07/12 03:28:05;;;;;;;5.60;4.73;;;21.30;99.90;;;;;;5051868;28;20550;-53
2023/07/12 03:30:32;;;;;;;15.27;4.87;;;21.20;99.90;;;;;;5049543;28;20513;-54
2023/07/12 03:32:58;;;;;;;7.07;5.00;;;21.10;99.90;;;;;;5050373;28;20535;-53
2023/07/12 03:35:25;;;;;;;7.93;4.90;;;21.10;99.90;;;;;;5050218;28;20462;-54
2023/07/12 03:37:51;;;;;;;9.80;5.80;;;21.10;99.90;;;;;;5050493;28;20569;-52
2023/07/12 03:40:19;;;;;;;5.40;4.87;;;21.10;99.90;;;;;;5051251;28;20897;-53
2023/07/12 03:42:46;;;;;;;5.70;4.90;;;21.10;99.90;;;;;;5048475;28;20505;-54
2023/07/12 03:45:13;;;;;;;19.57;5.77;;;21.10;99.90;;;;;;5050506;28;20901;-54
2023/07/12 03:47:39;;;;;;;6.50;4.70;;;21.20;99.90;;;;;;5052330;28;20515;-53
2023/07/12 03:50:07;;;;;;;4.87;4.47;;;21.20;99.90;;;;;;5049257;28;20565;-52
2023/07/12 03:52:33;;;;;;;7.83;4.37;;;21.20;99.90;;;;;;5051936;28;20551;-54
2023/07/12 03:55:00;;;;;;;11.30;5.97;;;21.20;99.90;;;;;;5055872;28;20913;-53
2023/07/12 03:57:28;;;;;;;8.23;6.00;;;21.30;99.90;;;;;;5052004;28;20560;-52
2023/07/12 03:59:54;;;;;;;6.47;5.87;;;21.30;99.90;;;;;;5048345;28;20558;-54
2023/07/12 04:02:21;;;;;;;8.73;5.63;;;21.30;99.90;;;;;;5053542;28;20474;-52
2023/07/12 04:04:47;;;;;;;7.13;5.20;;;21.30;99.90;;;;;;5044270;28;20494;-53
2023/07/12 04:07:14;;;;;;;5.60;5.10;;;21.30;99.90;;;;;;5046940;28;21014;-54
2023/07/12 04:09:40;;;;;;;6.73;6.00;;;21.30;99.90;;;;;;5051597;28;20561;-55
2023/07/12 04:12:08;;;;;;;6.10;4.50;;;21.30;99.90;;;;;;5048301;28;20509;-51
2023/07/12 04:14:35;;;;;;;8.33;5.43;;;21.30;99.90;;;;;;5051731;28;20565;-52
2023/07/12 04:17:02;;;;;;;6.80;5.93;;;21.30;99.90;;;;;;5049309;28;20555;-54
2023/07/12 04:19:28;;;;;;;5.13;4.53;;;21.30;99.90;;;;;;5050147;28;20520;-54
2023/07/12 04:21:55;;;;;;;7.27;5.80;;;21.20;99.90;;;;;;5044647;28;20900;-54
2023/07/12 04:24:21;;;;;;;6.67;5.70;;;21.20;99.90;;;;;;5048831;28;20521;-55
2023/07/12 04:26:49;;;;;;;9.27;6.00;;;21.20;99.90;;;;;;5050975;28;20548;-53
2023/07/12 04:29:15;;;;;;;6.83;5.83;;;21.20;99.90;;;;;;5048195;28;20959;-52
2023/07/12 04:31:43;;;;;;;7.00;6.30;;;21.30;99.90;;;;;;5049672;28;20548;-53
2023/07/12 04:34:10;;;;;;;8.83;5.47;;;21.30;99.90;;;;;;5053066;28;20589;-54
2023/07/12 04:36:36;;;;;;;10.23;5.53;;;21.30;99.90;;;;;;5048990;28;20560;-54
2023/07/12 04:39:03;;;;;;;6.20;5.60;;;21.30;99.90;;;;;;5045540;28;20553;-54
2023/07/12 04:41:30;;;;;;;14.80;6.50;;;21.30;99.90;;;;;;5043539;28;20838;-52
2023/07/12 04:43:56;;;;;;;7.60;6.80;;;21.40;99.90;;;;;;5044971;28;20488;-55
2023/07/12 04:46:23;;;;;;;8.60;5.67;;;21.40;99.90;;;;;;5050349;28;20515;-53
2023/07/12 04:48:51;;;;;;;14.30;6.27;;;21.40;99.90;;;;;;5045165;28;20632;-54
2023/07/12 04:51:17;;;;;;;8.43;5.70;;;21.40;99.90;;;;;;5045672;28;21031;-53
2023/07/12 04:53:47;;;;;;;6.67;6.00;;;21.40;99.90;;;;;;5040213;28;20573;-53
2023/07/12 04:56:14;;;;;;;13.23;6.20;;;21.50;88.90;;;;;;5049341;28;20458;-54
2023/07/12 04:58:40;;;;;;;8.80;6.67;;;21.50;78.50;;;;;;5046927;28;20564;-54
2023/07/12 05:01:07;;;;;;;6.73;6.07;;;21.50;76.60;;;;;;5052077;28;20979;-53
2023/07/12 05:03:33;;;;;;;11.67;6.70;;;21.50;74.80;;;;;;5043170;28;20510;-52
2023/07/12 05:06:01;;;;;;;13.13;7.03;;;21.50;71.50;;;;;;5044835;28;20562;-54
2023/07/12 05:08:28;;;;;;;11.13;6.77;;;21.60;76.30;;;;;;5051624;28;20560;-54
2023/07/12 05:10:58;;;;;;;6.80;6.10;;;21.60;75.70;;;;;;5052253;28;20454;-53
2023/07/12 05:13:25;;;;;;;8.70;7.03;;;21.70;75.30;;;;;;5053938;28;20516;-53
2023/07/12 05:15:52;;;;;;;9.80;7.00;;;21.70;82.60;;;;;;5049690;28;20458;-52
2023/07/12 05:18:19;;;;;;;10.93;7.20;;;21.70;86.80;;;;;;5050570;28;20478;-52
2023/07/12 05:20:46;;;;;;;13.60;7.17;;;21.80;89.70;;;;;;5048270;28;20465;-52
2023/07/12 05:23:14;;;;;;;11.27;7.63;;;21.90;94.50;;;;;;5053733;28;20517;-54
2023/07/12 05:25:48;;;;;;;12.63;7.60;;;22.00;93.60;;;;;;5051373;28;20528;-52
2023/07/12 05:28:14;;;;;;;13.17;7.93;;;22.00;96.20;;;;;;5051627;28;21049;-52
2023/07/12 05:30:41;;;;;;;14.37;8.50;;;22.10;99.00;;;;;;5049933;28;20487;-54
2023/07/12 05:33:08;;;;;;;9.73;7.23;;;22.10;97.80;;;;;;5048847;28;20509;-54
2023/07/12 05:35:34;;;;;;;12.63;8.40;;;22.10;97.90;;;;;;5045626;28;20963;-52
2023/07/12 05:38:01;;;;;;;12.30;7.33;;;22.20;99.90;;;;;;5053834;28;20460;-54
2023/07/12 05:40:29;;;;;;;8.17;7.30;;;22.30;98.20;;;;;;5050026;28;20566;-55
2023/07/12 05:42:56;;;;;;;11.67;7.87;;;22.30;97.50;;;;;;5054059;28;20465;-53
2023/07/12 05:45:23;;;;;;;14.17;8.57;;;22.30;96.80;;;;;;5046022;28;20492;-54
2023/07/12 05:47:49;;;;;;;9.20;8.20;;;22.30;96.10;;;;;;5053206;28;20459;-53
2023/07/12 05:50:18;;;;;;;13.43;9.27;;;22.50;96.00;;;;;;5047615;28;20557;-54
2023/07/12 05:52:44;;;;;;;16.40;9.67;;;22.60;95.50;;;;;;5052207;28;20975;-54
2023/07/12 05:55:13;;;;;;;18.13;8.43;;;22.70;97.10;;;;;;5050591;28;20485;-52
2023/07/12 05:57:41;;;;;;;19.10;9.00;;;22.80;96.90;;;;;;5047727;28;20917;-53
2023/07/12 06:00:09;;;;;;;13.83;9.00;;;23.00;97.90;;;;;;5045915;28;20493;-53
2023/07/12 06:02:36;;;;;;;13.07;9.60;;;23.00;95.70;;;;;;5042259;28;20481;-53
2023/07/12 06:05:03;;;;;;;16.80;9.77;;;23.20;96.40;;;;;;5050875;28;20508;-53
2023/07/12 06:07:29;;;;;;;15.90;9.50;;;23.30;97.80;;;;;;5050652;28;20481;-53
2023/07/12 06:09:56;;;;;;;14.17;8.50;;;23.40;97.00;;;;;;5044867;28;20564;-54
2023/07/12 06:12:22;;;;;;;12.03;8.37;;;23.50;96.70;;;;;;5048984;28;21349;-53
2023/07/12 06:14:50;;;;;;;12.30;8.50;;;23.60;96.10;;;;;;5045608;28;20488;-51
2023/07/12 06:17:17;;;;;;;12.83;8.60;;;23.70;97.10;;;;;;5045364;28;20566;-53
2023/07/12 06:19:44;;;;;;;15.70;8.50;;;23.80;96.60;;;;;;5047848;28;20493;-53
2023/07/12 06:22:11;;;;;;;13.50;8.83;;;23.90;94.10;;;;;;5046110;28;20548;-53
2023/07/12 06:24:37;;;;;;;15.00;8.43;;;24.00;98.90;;;;;;5046967;28;20554;-55
2023/07/12 06:27:06;;;;;;;18.63;8.77;;;24.00;98.30;;;;;;5047402;28;20600;-53
2023/07/12 06:29:32;;;;;;;10.60;8.10;;;24.10;97.50;;;;;;5050349;28;20465;-54
2023/07/12 06:32:01;;;;;;;10.50;8.20;;;24.10;99.90;;;;;;5035758;28;20669;-54
2023/07/12 06:34:28;;;;;;;9.90;7.80;;;24.20;99.90;;;;;;5044066;28;21253;-54
2023/07/12 06:36:55;;;;;;;21.93;8.77;;;24.30;99.90;;;;;;5047607;28;20519;-53
2023/07/12 06:39:21;;;;;;;14.00;8.10;;;24.40;99.90;;;;;;5042511;28;20517;-54
2023/07/12 06:41:48;;;;;;;8.40;7.07;;;24.40;99.90;;;;;;5046866;28;20541;-53
2023/07/12 06:44:14;;;;;;;17.53;7.80;;;24.50;99.90;;;;;;5041492;28;20576;-53
2023/07/12 06:46:41;;;;;;;13.43;7.30;;;24.50;99.90;;;;;;5046824;28;21027;-53
2023/07/12 06:49:10;;;;;;;26.63;7.90;;;24.60;99.90;;;;;;5043851;28;20556;-52
2023/07/12 06:51:37;;;;;;;13.30;7.40;;;24.60;99.90;;;;;;5048541;28;20621;-53
2023/07/12 06:54:03;;;;;;;9.53;7.10;;;24.70;99.90;;;;;;5047658;28;21249;-53
2023/07/12 06:56:30;;;;;;;9.50;7.70;;;24.70;99.90;;;;;;5049647;28;20592;-51
2023/07/12 06:58:57;;;;;;;15.00;7.50;;;24.80;99.90;;;;;;5050440;28;20553;-53
2023/07/12 07:01:23;;;;;;;9.50;7.63;;;24.80;99.90;;;;;;5052095;28;20573;-53
2023/07/12 07:03:50;;;;;;;12.70;6.67;;;24.90;99.90;;;;;;5047887;28;20477;-53
2023/07/12 07:06:19;;;;;;;10.87;8.33;;;24.80;99.90;;;;;;5046935;28;20581;-54
2023/07/12 07:08:47;;;;;;;16.77;7.47;;;24.70;99.90;;;;;;5051320;28;20512;-52
2023/07/12 07:11:13;;;;;;;10.03;7.97;;;24.70;99.90;;;;;;5049143;28;20481;-53
2023/07/12 07:13:40;;;;;;;9.67;7.53;;;24.50;99.90;;;;;;5041249;28;20569;-54
2023/07/12 07:16:06;;;;;;;14.03;7.17;;;24.50;99.90;;;;;;5048872;28;20524;-51
2023/07/12 07:18:33;;;;;;;30.10;7.60;;;24.50;99.90;;;;;;5049126;28;20902;-54
2023/07/12 07:21:00;;;;;;;12.27;9.20;;;24.50;99.90;;;;;;5048768;28;20453;-52
2023/07/12 07:23:28;;;;;;;14.87;8.60;;;24.50;99.90;;;;;;5051000;28;20584;-53
2023/07/12 07:25:55;;;;;;;11.90;9.33;;;24.50;99.90;;;;;;5057135;28;20892;-53
2023/07/12 07:28:22;;;;;;;19.93;9.83;;;24.40;99.90;;;;;;5050432;28;20466;-54
2023/07/12 07:30:53;;;;;;;11.00;9.70;;;24.30;99.90;;;;;;5046495;28;20541;-53
2023/07/12 07:33:19;;;;;;;23.40;9.30;;;24.20;99.90;;;;;;5045451;28;20522;-53
2023/07/12 07:35:46;;;;;;;17.97;8.83;;;24.20;99.90;;;;;;5044192;28;20625;-52
2023/07/12 07:38:13;;;;;;;10.83;9.40;;;24.10;99.90;;;;;;5043742;28;20554;-53
2023/07/12 07:40:41;;;;;;;23.43;9.00;;;24.10;99.90;;;;;;5049074;28;20512;-53
2023/07/12 07:43:08;;;;;;;13.60;9.40;;;24.10;99.90;;;;;;5044491;28;20597;-52
2023/07/12 07:45:34;;;;;;;15.40;8.43;;;24.00;99.90;;;;;;5049138;28;20971;-52
2023/07/12 07:48:01;;;;;;;10.17;8.53;;;24.00;99.90;;;;;;5042512;28;20472;-52
2023/07/12 07:50:28;;;;;;;11.47;8.50;;;24.00;99.90;;;;;;5049662;28;20461;-53
2023/07/12 07:52:55;;;;;;;11.77;9.07;;;24.00;99.90;;;;;;5048823;28;21054;-52
2023/07/12 07:55:22;;;;;;;10.50;8.30;;;23.90;99.90;;;;;;5048969;28;20568;-52
2023/07/12 07:57:50;;;;;;;9.27;8.27;;;23.80;99.90;;;;;;5047957;28;20462;-53
2023/07/12 08:00:16;;;;;;;9.00;8.20;;;23.80;99.90;;;;;;5046665;28;20545;-53
2023/07/12 08:02:44;;;;;;;7.87;6.60;;;24.00;99.90;;;;;;5049364;28;20573;-52
2023/07/12 08:05:11;;;;;;;7.60;6.67;;;23.90;99.90;;;;;;5046161;28;21018;-53
2023/07/12 08:07:39;;;;;;;8.37;5.70;;;23.90;99.90;;;;;;5048921;28;21393;-51
2023/07/12 08:10:08;;;;;;;5.70;5.00;;;23.80;99.90;;;;;;5045096;28;20540;-53
2023/07/12 08:12:34;;;;;;;12.40;5.77;;;23.90;99.90;;;;;;5045489;28;20505;-52
2023/07/12 08:15:03;;;;;;;6.03;5.53;;;24.00;99.90;;;;;;5039988;28;20474;-53
2023/07/12 08:17:30;;;;;;;7.40;5.90;;;24.10;99.90;;;;;;5049890;28;20468;-52
2023/07/12 08:19:57;;;;;;;11.37;5.30;;;24.20;99.90;;;;;;5049675;28;20469;-52
2023/07/12 08:22:24;;;;;;;6.03;5.30;;;24.20;99.90;;;;;;5048022;28;20560;-53
2023/07/12 08:24:50;;;;;;;6.53;5.70;;;24.00;99.90;;;;;;5048909;28;20454;-52
2023/07/12 08:27:17;;;;;;;7.90;5.07;;;24.10;99.90;;;;;;5050684;28;20544;-51
2023/07/12 08:29:44;;;;;;;9.07;5.00;;;24.10;99.90;;;;;;5043825;28;21047;-52
2023/07/12 08:32:12;;;;;;;6.50;5.80;;;24.10;99.90;;;;;;5047445;28;20549;-52
2023/07/12 08:34:39;;;;;;;6.33;4.70;;;23.90;99.90;;;;;;5044871;28;20565;-52
2023/07/12 08:37:06;;;;;;;10.10;5.00;;;24.10;99.90;;;;;;5049109;28;20952;-52
2023/07/12 08:39:33;;;;;;;5.83;4.97;;;24.10;99.90;;;;;;5049573;28;20457;-52
2023/07/12 08:42:00;;;;;;;4.40;4.00;;;24.20;99.90;;;;;;5047946;28;20561;-51
2023/07/12 08:44:29;;;;;;;5.63;3.97;;;24.20;99.90;;;;;;5044078;28;20514;-52
2023/07/12 08:46:58;;;;;;;4.63;4.00;;;24.10;99.90;;;;;;5046994;28;20466;-51
2023/07/12 08:49:28;;;;;;;5.30;4.20;;;24.40;99.90;;;;;;5046818;28;20558;-52
2023/07/12 08:52:00;;;;;;;6.10;3.80;;;24.40;99.90;;;;;;5049925;28;20455;-52
2023/07/12 08:54:33;;;;;;;3.93;3.13;;;24.40;99.90;;;;;;5048727;28;20489;-51
2023/07/12 08:57:14;;;;;;;3.63;3.40;;;24.50;99.90;;;;;;5046528;28;20982;-52
2023/07/12 08:59:41;;;;;;;3.03;2.80;;;24.60;99.90;;;;;;5044783;28;20450;-52
2023/07/12 09:02:19;;;;;;;3.57;3.17;;;24.70;99.90;;;;;;5040822;28;20541;-51
2023/07/12 09:04:48;;;;;;;3.50;3.20;;;24.70;99.90;;;;;;5045686;28;20542;-51
2023/07/12 09:07:23;;;;;;;3.33;3.03;;;24.80;99.90;;;;;;5046608;28;20461;-51
2023/07/12 09:09:50;;;;;;;8.73;3.47;;;24.60;99.90;;;;;;5039833;28;20450;-52
2023/07/12 09:12:25;;;;;;;4.20;3.20;;;24.80;99.90;;;;;;5048173;28;20960;-51
2023/07/12 09:14:55;;;;;;;2.57;2.37;;;25.10;99.90;;;;;;5045641;28;20572;-53
2023/07/12 09:17:27;;;;;;;4.13;2.73;;;25.30;99.90;;;;;;5046285;28;21043;-52
2023/07/12 09:19:55;;;;;;;2.83;2.53;;;25.40;99.90;;;;;;5045523;28;20999;-52
2023/07/12 09:22:22;;;;;;;2.60;2.40;;;25.50;99.90;;;;;;5046761;28;20537;-51
2023/07/12 09:24:52;;;;;;;3.73;2.50;;;25.70;99.90;;;;;;5044512;28;20481;-54
2023/07/12 09:27:22;;;;;;;3.80;2.90;;;25.40;99.90;;;;;;5045489;28;20938;-55
2023/07/12 09:29:49;;;;;;;2.40;2.20;;;25.50;99.90;;;;;;5046387;28;20523;-54
2023/07/12 09:32:21;;;;;;;5.03;3.40;;;25.60;99.90;;;;;;5047149;28;20540;-55
2023/07/12 09:34:50;;;;;;;3.53;2.53;;;25.60;99.90;;;;;;5046866;28;20499;-55
2023/07/12 09:37:22;;;;;;;3.43;2.57;;;25.40;99.90;;;;;;5048157;28;20466;-56
2023/07/12 09:39:54;;;;;;;3.00;2.57;;;25.40;99.90;;;;;;5047716;28;20465;-55
2023/07/12 09:42:21;;;;;;;2.50;2.30;;;25.70;99.90;;;;;;5046283;28;20454;-55
2023/07/12 09:44:49;;;;;;;4.47;2.90;;;26.00;99.90;;;;;;5048211;28;20529;-55
2023/07/12 09:47:33;;;;;;;2.37;2.27;;;26.20;99.90;;;;;;5049180;28;20541;-54
2023/07/12 09:50:06;;;;;;;2.23;2.13;;;26.00;99.90;;;;;;5046108;28;20461;-56
2023/07/12 09:52:44;;;;;;;7.63;2.20;;;25.70;99.90;;;;;;5046669;28;21192;-56
2023/07/12 09:55:16;;;;;;;2.57;2.37;;;25.80;99.90;;;;;;5056152;28;20900;-56
2023/07/12 09:57:51;;;;;;;2.37;2.20;;;25.80;99.90;;;;;;5048129;28;21057;-53
2023/07/12 10:00:26;;;;;;;4.10;1.87;;;26.10;99.90;;;;;;5045598;28;20478;-54
2023/07/12 10:03:14;;;;;;;2.90;2.10;;;26.00;99.90;;;;;;5046123;28;20564;-54
2023/07/12 10:05:45;;;;;;;1.67;1.57;;;25.80;99.90;;;;;;5044578;28;20477;-55
2023/07/12 10:08:16;;;;;;;4.67;1.47;;;25.50;99.90;;;;;;5046659;28;20494;-56
2023/07/12 10:10:50;;;;;;;5.90;1.47;;;25.90;99.90;;;;;;5047919;28;20545;-53
2023/07/12 10:13:29;;;;;;;7.23;1.90;;;26.20;99.90;;;;;;5046836;28;20990;-55
2023/07/12 10:15:57;;;;;;;5.90;1.50;;;26.40;99.90;;;;;;5045557;28;20911;-56
2023/07/12 10:18:27;;;;;;;9.10;1.80;;;26.10;99.90;;;;;;5047326;28;20954;-54
2023/07/12 10:20:56;;;;;;;1.80;1.23;;;25.80;99.90;;;;;;5047436;28;20824;-54
2023/07/12 10:23:27;;;;;;;5.70;1.60;;;25.60;99.90;;;;;;5051250;28;20591;-55
2023/07/12 10:25:57;;;;;;;2.30;2.00;;;25.70;99.90;;;;;;5044608;28;20586;-55
2023/07/12 10:28:28;;;;;;;1.53;1.30;;;26.10;99.90;;;;;;5045260;28;20922;-55
2023/07/12 10:30:57;;;;;;;2.80;2.03;;;26.70;99.90;;;;;;5050897;28;20545;-54
2023/07/12 10:33:28;;;;;;;2.40;2.20;;;27.10;99.90;;;;;;5052800;28;20513;-56
2023/07/12 10:35:57;;;;;;;5.87;3.43;;;27.40;99.90;;;;;;5052698;28;20944;-54
2023/07/12 10:38:25;;;;;;;2.97;2.00;;;27.60;99.90;;;;;;5050772;28;20561;-54
2023/07/12 10:40:56;;;;;;;3.53;2.00;;;27.70;1.40;;;;;;5049967;28;20965;-56
2023/07/12 10:43:27;;;;;;;2.10;2.00;;;28.10;99.90;;;;;;5053350;28;20572;-55
2023/07/12 10:45:59;;;;;;;3.07;2.20;;;27.70;99.90;;;;;;5050527;28;20489;-55
2023/07/12 10:48:29;;;;;;;2.47;1.60;;;27.50;99.90;;;;;;5050038;28;20557;-55
2023/07/12 10:51:13;;;;;;;1.53;1.50;;;27.70;99.90;;;;;;5050218;28;20558;-54
2023/07/12 10:53:50;;;;;;;2.70;1.50;;;27.20;99.90;;;;;;5050451;28;20488;-57
2023/07/12 10:56:19;;;;;;;2.97;1.40;;;27.50;99.90;;;;;;5044717;28;20572;-54
2023/07/12 10:58:49;;;;;;;6.33;3.00;;;28.20;99.90;;;;;;5050176;28;20492;-54
2023/07/12 11:01:50;;;;;;;1.67;1.50;;;27.80;99.90;;;;;;5050434;28;20457;-54
2023/07/12 11:04:25;;;;;;;3.00;2.23;;;27.70;99.90;;;;;;5044380;28;20571;-54
2023/07/12 11:06:57;;;;;;;1.53;1.43;;;27.40;99.90;;;;;;5044158;28;20460;-56
2023/07/12 11:09:27;;;;;;;1.13;1.03;;;27.60;99.90;;;;;;5047287;28;20554;-55
2023/07/12 11:12:05;;;;;;;6.47;1.57;;;27.60;99.90;;;;;;5042728;28;20972;-55
2023/07/12 11:14:48;;;;;;;2.37;1.67;;;27.70;99.90;;;;;;5051457;28;20588;-54
2023/07/12 11:17:20;;;;;;;2.00;1.40;;;27.20;99.90;;;;;;5045929;28;20549;-55
2023/07/12 11:20:02;;;;;;;7.70;1.20;;;27.30;99.90;;;;;;5050320;28;20493;-54
2023/07/12 11:22:52;;;;;;;1.60;1.50;;;27.10;99.90;;;;;;5052120;28;20466;-56
2023/07/12 11:25:39;;;;;;;1.53;1.27;;;27.10;99.90;;;;;;5048811;28;20486;-54
2023/07/12 11:28:24;;;;;;;1.60;1.43;;;26.70;99.90;;;;;;5057096;28;21009;-55
2023/07/12 11:31:13;;;;;;;1.20;1.10;;;26.80;99.90;;;;;;5049345;28;20477;-56
2023/07/12 11:33:42;;;;;;;1.77;1.53;;;26.60;99.90;;;;;;5050371;28;20578;-56
2023/07/12 11:36:18;;;;;;;1.17;1.17;;;26.60;99.90;;;;;;5049698;28;20489;-55
2023/07/12 11:38:48;;;;;;;2.37;1.43;;;27.10;99.90;;;;;;5049547;28;20991;-55
2023/07/12 11:41:17;;;;;;;1.77;1.30;;;27.50;99.90;;;;;;5050603;28;20548;-55
2023/07/12 11:43:44;;;;;;;2.50;0.90;;;27.70;99.90;;;;;;5048638;28;21034;-54
2023/07/12 11:46:15;;;;;;;1.80;1.23;;;27.20;99.90;;;;;;5045273;28;20461;-55
2023/07/12 11:48:45;;;;;;;1.77;1.03;;;27.30;99.90;;;;;;5035339;28;21272;-55
2023/07/12 11:51:20;;;;;;;1.47;1.20;;;27.10;99.90;;;;;;5049811;28;20548;-56
2023/07/12 11:53:56;;;;;;;1.37;1.27;;;27.30;99.90;;;;;;5049472;28;21424;-54
2023/07/12 11:56:24;;;;;;;1.40;1.27;;;27.30;99.90;;;;;;5048070;28;20560;-55
2023/07/12 11:58:51;;;;;;;1.20;1.10;;;27.30;99.90;;;;;;5048304;28;20520;-55
2023/07/12 12:01:21;;;;;;;1.27;1.10;;;27.20;99.90;;;;;;5048888;28;20959;-55
2023/07/12 12:03:49;;;;;;;5.83;1.43;;;27.80;99.90;;;;;;5046534;28;20485;-56
2023/07/12 12:06:17;;;;;;;1.30;0.90;;;28.00;99.90;;;;;;5047847;28;21714;-55
2023/07/12 12:08:47;;;;;;;1.30;1.17;;;28.10;99.90;;;;;;5048996;28;20986;-55
2023/07/12 12:11:14;;;;;;;2.77;1.20;;;28.40;99.90;;;;;;5048745;28;20550;-55
2023/07/12 12:13:46;;;;;;;1.20;1.20;;;28.80;99.90;;;;;;5048325;28;20587;-55
2023/07/12 12:16:20;;;;;;;1.00;0.90;;;28.60;99.90;;;;;;5050009;28;20683;-55
2023/07/12 12:18:52;;;;;;;12.87;1.50;;;28.00;99.90;;;;;;5049647;28;20540;-54
2023/07/12 12:21:20;;;;;;;1.93;1.10;;;27.40;99.90;;;;;;5048851;28;20557;-54
2023/07/12 12:23:55;;;;;;;0.83;0.83;;;27.00;99.90;;;;;;5046451;28;20513;-56
2023/07/12 12:26:26;;;;;;;1.20;1.10;;;26.70;99.90;;;;;;5046803;28;20481;-53
2023/07/12 12:28:58;;;;;;;3.27;1.10;;;26.40;99.90;;;;;;5046551;28;20892;-53
2023/07/12 12:31:26;;;;;;;0.83;0.80;;;26.30;99.90;;;;;;5046566;28;20545;-52
2023/07/12 12:34:02;;;;;;;0.60;0.60;;;26.30;99.90;;;;;;5047423;28;21098;-54
2023/07/12 12:36:30;;;;;;;2.10;1.37;;;26.30;99.90;;;;;;5048673;28;21300;-53
2023/07/12 12:39:01;;;;;;;4.50;1.23;;;26.40;99.90;;;;;;5050459;28;20545;-53
2023/07/12 12:41:38;;;;;;;1.73;0.83;;;26.40;99.90;;;;;;5048227;28;20545;-54
2023/07/12 12:44:16;;;;;;;2.83;1.00;;;26.30;99.90;;;;;;5048710;28;20520;-53
2023/07/12 12:46:44;;;;;;;2.33;1.03;;;26.50;99.90;;;;;;5046490;28;20493;-53
2023/07/12 12:49:22;;;;;;;1.53;0.70;;;26.80;99.90;;;;;;5049541;28;20454;-53
2023/07/12 12:51:50;;;;;;;2.87;0.87;;;27.00;99.90;;;;;;5049130;28;20540;-53